createdAt,value
2023-10-19T00:01:11.364Z,98920.13
2023-10-19T00:03:38.488Z,98916.00
2023-10-19T00:06:06.403Z,98913.72
2023-10-19T00:08:45.171Z,98909.41
2023-10-19T00:11:22.582Z,98911.47
2023-10-19T00:13:55.066Z,98906.91
2023-10-19T00:16:29.991Z,98911.25
2023-10-19T00:19:00.435Z,98901.53
2023-10-19T00:21:29.525Z,98906.09
2023-10-19T00:23:58.739Z,98907.75
2023-10-19T00:26:26.793Z,98895.94
2023-10-19T00:28:56.716Z,98896.16
2023-10-19T00:31:24.297Z,98884.56
2023-10-19T00:33:55.518Z,98889.94
2023-10-19T00:36:23.529Z,98888.28
2023-10-19T00:38:51.632Z,98882.09
2023-10-19T00:41:30.304Z,98888.28
2023-10-19T00:44:13.108Z,98883.97
2023-10-19T00:46:43.224Z,98882.31
2023-10-19T00:49:14.729Z,98863.50
2023-10-19T00:51:55.066Z,98874.25
2023-10-19T00:54:34.559Z,98872.59
2023-10-19T00:57:11.636Z,98868.88
2023-10-19T01:00:01.126Z,98863.69
2023-10-19T01:02:27.586Z,98859.38
2023-10-19T01:05:02.212Z,98844.84
2023-10-19T01:07:30.352Z,98831.59
2023-10-19T01:10:00.266Z,98832.66
2023-10-19T01:12:33.973Z,98832.06
2023-10-19T01:15:08.804Z,98823.97
2023-10-19T01:17:40.219Z,98827.94
2023-10-19T01:20:18.528Z,98831.88
2023-10-19T01:23:15.545Z,98816.78
2023-10-19T01:25:55.122Z,98825.91
2023-10-19T01:28:39.783Z,98825.50
2023-10-19T01:31:08.830Z,98821.38
2023-10-19T01:33:36.028Z,98817.03
2023-10-19T01:36:12.814Z,98821.81
2023-10-19T01:38:40.068Z,98824.13
2023-10-19T01:41:14.406Z,98828.69
2023-10-19T01:43:44.903Z,98817.91
2023-10-19T01:46:13.244Z,98821.44
2023-10-19T01:48:44.761Z,98810.66
2023-10-19T01:51:13.582Z,98812.31
2023-10-19T01:53:41.020Z,98798.88
2023-10-19T01:56:10.695Z,98790.78
2023-10-19T01:58:38.326Z,98780.28
2023-10-19T02:01:14.605Z,98786.66
2023-10-19T02:03:44.606Z,98786.66
2023-10-19T02:06:19.031Z,98786.66
2023-10-19T02:08:57.552Z,98777.59
2023-10-19T02:11:25.331Z,98779.66
2023-10-19T02:13:55.303Z,98774.91
2023-10-19T02:16:26.616Z,98770.53
2023-10-19T02:18:53.250Z,98758.75
2023-10-19T02:21:33.611Z,98752.53
2023-10-19T02:24:00.264Z,98746.13
2023-10-19T02:26:31.769Z,98750.25
2023-10-19T02:28:59.415Z,98748.16
2023-10-19T02:31:26.690Z,98738.22
2023-10-19T02:34:01.126Z,98738.81
2023-10-19T02:36:31.794Z,98732.41
2023-10-19T02:39:09.123Z,98731.34
2023-10-19T02:41:47.855Z,98722.03
2023-10-19T02:44:19.329Z,98722.03
2023-10-19T02:46:47.179Z,98727.41
2023-10-19T02:49:15.819Z,98729.28
2023-10-19T02:51:46.414Z,98724.72
2023-10-19T02:54:21.553Z,98724.50
2023-10-19T02:56:50.577Z,98722.66
2023-10-19T02:59:17.874Z,98719.13
2023-10-19T03:01:47.666Z,98717.88
2023-10-19T03:04:14.104Z,98712.50
2023-10-19T03:06:42.021Z,98713.31
2023-10-19T03:09:30.923Z,98721.38
2023-10-19T03:12:01.400Z,98716.63
2023-10-19T03:14:28.352Z,98712.06
2023-10-19T03:16:58.589Z,98713.69
2023-10-19T03:19:26.519Z,98701.28
2023-10-19T03:21:53.588Z,98702.94
2023-10-19T03:24:41.865Z,98702.94
2023-10-19T03:27:22.940Z,98719.06
2023-10-19T03:29:56.989Z,98716.38
2023-10-19T03:32:28.270Z,98704.34
2023-10-19T03:35:01.317Z,98703.31
2023-10-19T03:37:31.989Z,98711.16
2023-10-19T03:39:59.404Z,98707.22
2023-10-19T03:42:33.393Z,98707.00
2023-10-19T03:45:03.209Z,98701.19
2023-10-19T03:47:36.443Z,98696.16
2023-10-19T03:50:07.854Z,98694.91
2023-10-19T03:52:40.642Z,98693.44
2023-10-19T03:55:12.474Z,98687.81
2023-10-19T03:57:43.157Z,98686.53
2023-10-19T04:00:16.738Z,98686.94
2023-10-19T04:02:43.863Z,98686.69
2023-10-19T04:05:15.476Z,98681.91
2023-10-19T04:07:44.907Z,98679.84
2023-10-19T04:10:30.650Z,98672.13
2023-10-19T04:13:00.845Z,98677.91
2023-10-19T04:15:27.924Z,98666.09
2023-10-19T04:17:56.332Z,98674.75
2023-10-19T04:20:23.239Z,98674.31
2023-10-19T04:22:51.990Z,98656.06
2023-10-19T04:25:30.554Z,98659.56
2023-10-19T04:27:58.540Z,98655.63
2023-10-19T04:30:28.500Z,98654.56
2023-10-19T04:32:58.703Z,98657.03
2023-10-19T04:35:25.570Z,98652.25
2023-10-19T04:37:53.699Z,98660.91
2023-10-19T04:40:22.273Z,98656.16
2023-10-19T04:42:52.233Z,98644.34
2023-10-19T04:45:19.056Z,98651.38
2023-10-19T04:47:45.607Z,98643.91
2023-10-19T04:50:12.151Z,98642.63
2023-10-19T04:52:39.875Z,98640.53
2023-10-19T04:55:06.798Z,98646.28
2023-10-19T04:57:33.362Z,98649.34
2023-10-19T04:59:59.716Z,98649.13
2023-10-19T05:02:26.245Z,98640.59
2023-10-19T05:04:52.712Z,98645.75
2023-10-19T05:07:19.212Z,98645.31
2023-10-19T05:09:46.602Z,98642.16
2023-10-19T05:12:15.474Z,98637.34
2023-10-19T05:14:43.136Z,98637.72
2023-10-19T05:17:10.393Z,98643.25
2023-10-19T05:19:38.699Z,98639.28
2023-10-19T05:22:07.637Z,98629.09
2023-10-19T05:24:34.134Z,98633.22
2023-10-19T05:27:00.698Z,98630.88
2023-10-19T05:29:27.247Z,98635.78
2023-10-19T05:31:59.172Z,98638.03
2023-10-19T05:34:27.888Z,98630.31
2023-10-19T05:36:55.256Z,98634.44
2023-10-19T05:39:21.988Z,98639.34
2023-10-19T05:41:48.406Z,98634.56
2023-10-19T05:44:14.793Z,98634.09
2023-10-19T05:46:42.301Z,98631.16
2023-10-19T05:49:09.131Z,98639.25
2023-10-19T05:51:35.611Z,98649.59
2023-10-19T05:54:04.816Z,98645.84
2023-10-19T05:56:32.365Z,98645.63
2023-10-19T05:58:59.314Z,98639.97
2023-10-19T06:01:26.026Z,98643.28
2023-10-19T06:03:53.099Z,98661.94
2023-10-19T06:06:23.566Z,98656.06
2023-10-19T06:08:54.507Z,98650.66
2023-10-19T06:11:22.386Z,98664.72
2023-10-19T06:13:49.065Z,98670.72
2023-10-19T06:16:15.695Z,98660.75
2023-10-19T06:18:44.428Z,98660.53
2023-10-19T06:21:11.198Z,98663.00
2023-10-19T06:23:38.113Z,98662.75
2023-10-19T06:26:12.966Z,98674.13
2023-10-19T06:28:41.888Z,98665.22
2023-10-19T06:31:08.520Z,98664.97
2023-10-19T06:33:35.155Z,98663.94
2023-10-19T06:36:04.216Z,98673.44
2023-10-19T06:38:32.459Z,98671.56
2023-10-19T06:40:59.938Z,98668.63
2023-10-19T06:43:31.077Z,98667.34
2023-10-19T06:46:01.480Z,98676.84
2023-10-19T06:48:27.992Z,98674.75
2023-10-19T06:50:54.357Z,98680.97
2023-10-19T06:53:20.769Z,98691.31
2023-10-19T06:55:47.273Z,98682.16
2023-10-19T06:58:15.678Z,98690.59
2023-10-19T07:00:48.073Z,98682.03
2023-10-19T07:03:14.856Z,98682.63
2023-10-19T07:05:41.371Z,98674.09
2023-10-19T07:08:08.157Z,98675.28
2023-10-19T07:10:35.925Z,98675.63
2023-10-19T07:13:03.045Z,98677.84
2023-10-19T07:15:31.090Z,98679.84
2023-10-19T07:17:57.940Z,98684.56
2023-10-19T07:20:32.786Z,98681.16
2023-10-19T07:23:04.571Z,98680.44
2023-10-19T07:25:32.376Z,98688.66
2023-10-19T07:28:00.992Z,98692.53
2023-10-19T07:30:27.881Z,98694.78
2023-10-19T07:33:00.044Z,98701.34
2023-10-19T07:35:28.128Z,98696.06
2023-10-19T07:37:56.601Z,98693.72
2023-10-19T07:40:24.959Z,98704.63
2023-10-19T07:42:55.099Z,98703.34
2023-10-19T07:45:22.636Z,98704.50
2023-10-19T07:47:49.187Z,98700.28
2023-10-19T07:50:18.705Z,98701.44
2023-10-19T07:52:48.285Z,98699.91
2023-10-19T07:55:15.170Z,98694.63
2023-10-19T07:57:45.172Z,98698.25
2023-10-19T08:00:15.147Z,98703.53
2023-10-19T08:02:46.877Z,98702.56
2023-10-19T08:05:19.555Z,98701.59
2023-10-19T08:07:48.205Z,98698.78
2023-10-19T08:10:16.807Z,98696.19
2023-10-19T08:12:44.885Z,98692.53
2023-10-19T08:15:12.662Z,98695.31
2023-10-19T08:17:40.668Z,98691.91
2023-10-19T08:20:17.246Z,98697.41
2023-10-19T08:22:49.630Z,98687.50
2023-10-19T08:25:16.241Z,98693.25
2023-10-19T08:27:45.959Z,98693.59
2023-10-19T08:30:14.215Z,98695.31
2023-10-19T08:32:42.806Z,98696.50
2023-10-19T08:35:12.956Z,98700.34
2023-10-19T08:37:43.231Z,98712.88
2023-10-19T08:40:16.637Z,98705.44
2023-10-19T08:42:44.097Z,98711.19
2023-10-19T08:45:13.772Z,98700.47
2023-10-19T08:47:58.322Z,98712.19
2023-10-19T08:50:26.168Z,98706.88
2023-10-19T08:52:58.014Z,98709.41
2023-10-19T08:55:37.390Z,98708.91
2023-10-19T08:58:11.439Z,98707.09
2023-10-19T09:00:49.658Z,98710.47
2023-10-19T09:03:18.278Z,98701.63
2023-10-19T09:05:47.361Z,98699.59
2023-10-19T09:08:19.009Z,98712.13
2023-10-19T09:10:47.329Z,98698.66
2023-10-19T09:13:15.694Z,98702.84
2023-10-19T09:15:42.824Z,98691.00
2023-10-19T09:18:19.592Z,98695.97
2023-10-19T09:20:54.050Z,98693.34
2023-10-19T09:23:26.135Z,98695.88
2023-10-19T09:25:56.758Z,98698.66
2023-10-19T09:28:25.000Z,98690.59
2023-10-19T09:30:52.767Z,98694.19
2023-10-19T09:33:19.395Z,98686.13
2023-10-19T09:35:49.269Z,98681.59
2023-10-19T09:38:17.194Z,98690.84
2023-10-19T09:40:44.202Z,98679.50
2023-10-19T09:43:17.375Z,98685.53
2023-10-19T09:45:52.060Z,98679.16
2023-10-19T09:48:20.474Z,98681.34
2023-10-19T09:50:55.980Z,98688.44
2023-10-19T09:53:26.408Z,98683.91
2023-10-19T09:55:56.875Z,98683.13
2023-10-19T09:58:27.074Z,98690.00
2023-10-19T10:00:53.553Z,98682.97
2023-10-19T10:03:45.521Z,98675.44
2023-10-19T10:06:15.211Z,98669.25
2023-10-19T10:08:46.223Z,98667.41
2023-10-19T10:11:25.153Z,98664.50
2023-10-19T10:13:52.585Z,98657.19
2023-10-19T10:16:30.205Z,98651.53
2023-10-19T10:19:01.272Z,98657.56
2023-10-19T10:21:31.502Z,98663.06
2023-10-19T10:24:00.507Z,98672.06
2023-10-19T10:26:36.390Z,98678.69
2023-10-19T10:29:10.774Z,98674.94
2023-10-19T10:31:47.064Z,98668.50
2023-10-19T10:34:39.260Z,98666.13
2023-10-19T10:37:09.109Z,98659.69
2023-10-19T10:39:39.683Z,98650.19
2023-10-19T10:42:08.345Z,98651.63
2023-10-19T10:44:48.329Z,98647.88
2023-10-19T10:47:25.579Z,98653.66
2023-10-19T10:49:57.899Z,98651.81
2023-10-19T10:52:35.106Z,98657.53
2023-10-19T10:55:12.734Z,98648.28
2023-10-19T10:57:40.653Z,98636.59
2023-10-19T11:00:17.301Z,98633.88
2023-10-19T11:02:46.931Z,98638.78
2023-10-19T11:05:14.984Z,98645.88
2023-10-19T11:08:02.545Z,98646.16
2023-10-19T11:10:30.416Z,98645.88
2023-10-19T11:13:14.338Z,98643.94
2023-10-19T11:15:50.042Z,98641.50
2023-10-19T11:18:36.907Z,98652.09
2023-10-19T11:21:08.095Z,98648.03
2023-10-19T11:23:42.515Z,98652.38
2023-10-19T11:26:11.516Z,98637.38
2023-10-19T11:28:44.102Z,98640.38
2023-10-19T11:31:24.800Z,98635.97
2023-10-19T11:33:53.775Z,98634.59
2023-10-19T11:36:23.147Z,98638.69
2023-10-19T11:38:52.733Z,98639.25
2023-10-19T11:41:19.515Z,98649.34
2023-10-19T11:43:47.387Z,98645.78
2023-10-19T11:46:15.750Z,98638.44
2023-10-19T11:48:43.981Z,98631.34
2023-10-19T11:51:12.032Z,98625.59
2023-10-19T11:53:39.704Z,98621.25
2023-10-19T11:56:08.267Z,98619.31
2023-10-19T11:58:35.929Z,98621.22
2023-10-19T12:01:17.778Z,98617.06
2023-10-19T12:03:46.792Z,98614.06
2023-10-19T12:06:19.898Z,98610.75
2023-10-19T12:08:48.024Z,98614.25
2023-10-19T12:11:20.609Z,98598.63
2023-10-19T12:13:48.488Z,98597.78
2023-10-19T12:16:21.059Z,98603.97
2023-10-19T12:18:49.816Z,98605.53
2023-10-19T12:21:18.796Z,98610.91
2023-10-19T12:23:45.656Z,98610.06
2023-10-19T12:26:12.354Z,98604.78
2023-10-19T12:28:39.621Z,98611.56
2023-10-19T12:31:10.074Z,98607.16
2023-10-19T12:33:37.600Z,98586.34
2023-10-19T12:36:23.024Z,98585.50
2023-10-19T12:38:50.659Z,98579.72
2023-10-19T12:41:18.341Z,98579.88
2023-10-19T12:43:44.922Z,98590.19
2023-10-19T12:46:13.178Z,98571.22
2023-10-19T12:48:39.609Z,98571.97
2023-10-19T12:51:10.159Z,98572.81
2023-10-19T12:53:38.212Z,98566.50
2023-10-19T12:56:04.791Z,98563.56
2023-10-19T12:58:33.033Z,98565.75
2023-10-19T13:00:59.595Z,98564.72
2023-10-19T13:03:32.783Z,98556.78
2023-10-19T13:05:59.427Z,98562.84
2023-10-19T13:08:28.559Z,98562.91
2023-10-19T13:11:01.539Z,98566.81
2023-10-19T13:13:31.434Z,98558.66
2023-10-19T13:15:58.136Z,98564.16
2023-10-19T13:18:30.665Z,98557.63
2023-10-19T13:20:58.022Z,98551.13
2023-10-19T13:23:24.548Z,98551.19
2023-10-19T13:25:51.827Z,98557.22
2023-10-19T13:28:19.776Z,98553.97
2023-10-19T13:30:56.674Z,98551.75
2023-10-19T13:33:23.442Z,98553.38
2023-10-19T13:35:50.004Z,98544.06
2023-10-19T13:38:18.651Z,98542.69
2023-10-19T13:40:47.785Z,98540.75
2023-10-19T13:43:15.276Z,98531.53
2023-10-19T13:45:46.044Z,98534.03
2023-10-19T13:48:14.002Z,98536.28
2023-10-19T13:50:51.000Z,98546.97
2023-10-19T13:53:17.856Z,98540.97
2023-10-19T13:55:45.344Z,98544.56
2023-10-19T13:58:12.284Z,98549.25
2023-10-19T14:00:42.003Z,98540.28
2023-10-19T14:03:10.191Z,98544.16
2023-10-19T14:05:41.067Z,98554.03
2023-10-19T14:08:08.047Z,98550.53
2023-10-19T14:10:35.918Z,98545.91
2023-10-19T14:13:03.485Z,98542.41
2023-10-19T14:15:30.023Z,98541.31
2023-10-19T14:17:59.335Z,98531.28
2023-10-19T14:20:26.215Z,98524.75
2023-10-19T14:22:54.784Z,98520.94
2023-10-19T14:25:25.645Z,98503.22
2023-10-19T14:27:55.724Z,98507.34
2023-10-19T14:30:26.671Z,98512.56
2023-10-19T14:32:53.230Z,98523.50
2023-10-19T14:35:21.357Z,98523.25
2023-10-19T14:37:50.254Z,98521.06
2023-10-19T14:40:22.041Z,98531.13
2023-10-19T14:42:49.464Z,98520.78
2023-10-19T14:45:17.986Z,98526.53
2023-10-19T14:47:52.669Z,98530.06
2023-10-19T14:50:20.443Z,98526.81
2023-10-19T14:52:49.814Z,98521.34
2023-10-19T14:55:16.902Z,98526.28
2023-10-19T14:57:54.650Z,98531.72
2023-10-19T15:00:35.023Z,98530.09
2023-10-19T15:03:08.524Z,98523.03
2023-10-19T15:05:38.912Z,98511.28
2023-10-19T15:08:06.653Z,98504.22
2023-10-19T15:10:33.651Z,98508.84
2023-10-19T15:13:00.558Z,98516.50
2023-10-19T15:15:28.162Z,98507.78
2023-10-19T15:17:55.206Z,98502.63
2023-10-19T15:20:26.208Z,98494.72
2023-10-19T15:22:52.856Z,98491.75
2023-10-19T15:25:21.236Z,98496.91
2023-10-19T15:27:51.743Z,98507.84
2023-10-19T15:30:21.203Z,98500.78
2023-10-19T15:32:48.987Z,98493.75
2023-10-19T15:35:17.332Z,98498.13
2023-10-19T15:37:49.192Z,98488.63
2023-10-19T15:40:17.439Z,98494.41
2023-10-19T15:42:44.594Z,98484.31
2023-10-19T15:45:15.131Z,98479.69
2023-10-19T15:47:41.902Z,98483.00
2023-10-19T15:50:09.568Z,98476.75
2023-10-19T15:52:41.594Z,98474.88
2023-10-19T15:55:08.342Z,98473.78
2023-10-19T15:57:34.802Z,98476.53
2023-10-19T16:00:01.318Z,98470.00
2023-10-19T16:02:27.854Z,98473.28
2023-10-19T16:04:54.418Z,98474.91
2023-10-19T16:07:20.911Z,98470.78
2023-10-19T16:09:47.337Z,98473.22
2023-10-19T16:12:14.717Z,98463.72
2023-10-19T16:14:41.435Z,98462.34
2023-10-19T16:17:10.007Z,98459.06
2023-10-19T16:19:36.677Z,98461.25
2023-10-19T16:22:03.237Z,98461.47
2023-10-19T16:24:30.346Z,98458.47
2023-10-19T16:26:59.790Z,98459.00
2023-10-19T16:29:27.277Z,98448.66
2023-10-19T16:31:59.369Z,98446.44
2023-10-19T16:34:26.337Z,98452.94
2023-10-19T16:36:52.832Z,98453.97
2023-10-19T16:39:19.297Z,98441.72
2023-10-19T16:41:47.244Z,98450.66
2023-10-19T16:44:13.950Z,98459.88
2023-10-19T16:46:40.763Z,98454.44
2023-10-19T16:49:07.321Z,98458.72
2023-10-19T16:51:37.108Z,98468.19
2023-10-19T16:54:04.701Z,98467.63
2023-10-19T16:56:31.172Z,98470.84
2023-10-19T16:58:57.602Z,98471.59
2023-10-19T17:01:24.222Z,98464.19
2023-10-19T17:03:50.730Z,98473.06
2023-10-19T17:06:17.766Z,98465.94
2023-10-19T17:08:45.783Z,98455.50
2023-10-19T17:11:12.907Z,98459.44
2023-10-19T17:13:40.284Z,98456.34
2023-10-19T17:16:07.026Z,98461.94
2023-10-19T17:18:34.967Z,98458.56
2023-10-19T17:21:03.449Z,98466.34
2023-10-19T17:23:30.171Z,98459.72
2023-10-19T17:25:56.771Z,98467.50
2023-10-19T17:28:23.152Z,98471.47
2023-10-19T17:30:52.273Z,98471.59
2023-10-19T17:33:19.338Z,98472.31
2023-10-19T17:35:46.067Z,98465.19
2023-10-19T17:38:13.953Z,98461.88
2023-10-19T17:40:40.753Z,98455.81
2023-10-19T17:43:10.489Z,98450.91
2023-10-19T17:45:37.681Z,98450.03
2023-10-19T17:48:05.122Z,98452.41
2023-10-19T17:50:32.780Z,98446.66
2023-10-19T17:53:01.782Z,98456.34
2023-10-19T17:55:28.467Z,98457.13
2023-10-19T17:57:55.059Z,98464.06
2023-10-19T18:00:21.661Z,98456.69
2023-10-19T18:02:49.107Z,98460.72
2023-10-19T18:05:15.955Z,98450.66
2023-10-19T18:07:42.682Z,98443.28
2023-10-19T18:10:09.731Z,98446.72
2023-10-19T18:12:39.173Z,98446.66
2023-10-19T18:15:09.147Z,98441.44
2023-10-19T18:17:36.579Z,98462.97
2023-10-19T18:20:08.908Z,98474.25
2023-10-19T18:22:38.832Z,98460.69
2023-10-19T18:25:06.093Z,98457.59
2023-10-19T18:27:32.546Z,98455.16
2023-10-19T18:30:00.044Z,98450.00
2023-10-19T18:32:27.211Z,98448.38
2023-10-19T18:34:53.710Z,98452.94
2023-10-19T18:37:20.310Z,98450.50
2023-10-19T18:39:46.821Z,98440.19
2023-10-19T18:42:13.637Z,98436.09
2023-10-19T18:44:40.074Z,98433.03
2023-10-19T18:47:06.546Z,98417.00
2023-10-19T18:49:33.234Z,98422.31
2023-10-19T18:51:59.712Z,98418.72
2023-10-19T18:54:26.902Z,98417.81
2023-10-19T18:56:53.369Z,98414.44
2023-10-19T18:59:19.851Z,98423.25
2023-10-19T19:01:46.587Z,98415.88
2023-10-19T19:04:12.956Z,98416.88
2023-10-19T19:06:40.050Z,98415.69
2023-10-19T19:09:06.501Z,98414.78
2023-10-19T19:11:32.940Z,98406.59
2023-10-19T19:13:59.400Z,98406.84
2023-10-19T19:16:26.831Z,98392.78
2023-10-19T19:18:53.257Z,98404.06
2023-10-19T19:21:20.259Z,98396.69
2023-10-19T19:23:47.910Z,98406.06
2023-10-19T19:26:15.218Z,98402.25
2023-10-19T19:28:44.229Z,98404.59
2023-10-19T19:31:19.470Z,98385.09
2023-10-19T19:33:49.533Z,98389.09
2023-10-19T19:36:18.951Z,98378.78
2023-10-19T19:38:46.573Z,98388.44
2023-10-19T19:41:16.752Z,98388.94
2023-10-19T19:43:44.379Z,98394.75
2023-10-19T19:46:10.884Z,98389.63
2023-10-19T19:48:37.503Z,98393.59
2023-10-19T19:51:05.331Z,98398.41
2023-10-19T19:53:32.017Z,98403.22
2023-10-19T19:55:59.330Z,98404.53
2023-10-19T19:58:26.590Z,98401.50
2023-10-19T20:00:53.008Z,98410.88
2023-10-19T20:03:19.530Z,98412.19
2023-10-19T20:05:46.117Z,98410.78
2023-10-19T20:08:12.795Z,98415.56
2023-10-19T20:10:44.565Z,98411.03
2023-10-19T20:13:15.466Z,98402.34
2023-10-19T20:15:42.777Z,98392.59
2023-10-19T20:18:10.187Z,98396.97
2023-10-19T20:20:36.789Z,98388.59
2023-10-19T20:23:03.469Z,98380.28
2023-10-19T20:25:30.226Z,98376.53
2023-10-19T20:27:58.124Z,98374.63
2023-10-19T20:30:25.445Z,98374.41
2023-10-19T20:32:53.225Z,98371.50
2023-10-19T20:35:21.793Z,98368.53
2023-10-19T20:37:49.235Z,98368.53
2023-10-19T20:40:22.459Z,98376.63
2023-10-19T20:42:55.396Z,98365.84
2023-10-19T20:45:23.368Z,98363.63
2023-10-19T20:47:52.921Z,98362.00
2023-10-19T20:50:23.350Z,98376.78
2023-10-19T20:52:55.545Z,98372.44
2023-10-19T20:55:21.969Z,98374.78
2023-10-19T20:57:48.740Z,98386.66
2023-10-19T21:00:15.564Z,98371.50
2023-10-19T21:02:42.925Z,98373.63
2023-10-19T21:05:13.517Z,98381.72
2023-10-19T21:07:40.205Z,98387.09
2023-10-19T21:10:13.102Z,98379.59
2023-10-19T21:12:40.579Z,98368.00
2023-10-19T21:15:13.867Z,98368.81
2023-10-19T21:17:49.393Z,98375.03
2023-10-19T21:20:17.118Z,98379.59
2023-10-19T21:22:44.806Z,98389.34
2023-10-19T21:25:17.274Z,98372.09
2023-10-19T21:27:45.237Z,98364.00
2023-10-19T21:30:14.324Z,98359.19
2023-10-19T21:32:42.920Z,98360.81
2023-10-19T21:35:10.571Z,98348.75
2023-10-19T21:37:37.546Z,98331.75
2023-10-19T21:40:05.635Z,98328.25
2023-10-19T21:42:32.836Z,98330.34
2023-10-19T21:44:59.285Z,98319.78
2023-10-19T21:47:27.012Z,98316.75
2023-10-19T21:49:53.846Z,98311.84
2023-10-19T21:52:24.890Z,98308.78
2023-10-19T21:54:52.084Z,98302.00
2023-10-19T21:57:19.095Z,98294.16
2023-10-19T21:59:46.266Z,98283.88
2023-10-19T22:02:12.965Z,98280.59
2023-10-19T22:04:40.818Z,98287.88
2023-10-19T22:07:07.459Z,98288.09
2023-10-19T22:09:34.586Z,98294.56
2023-10-19T22:12:01.654Z,98279.69
2023-10-19T22:14:29.398Z,98280.97
2023-10-19T22:16:56.860Z,98267.72
2023-10-19T22:19:27.874Z,98264.44
2023-10-19T22:21:57.116Z,98272.78
2023-10-19T22:24:23.556Z,98277.00
2023-10-19T22:26:56.521Z,98273.75
2023-10-19T22:29:23.167Z,98277.75
2023-10-19T22:31:52.816Z,98274.19
2023-10-19T22:34:19.854Z,98280.66
2023-10-19T22:36:46.405Z,98272.56
2023-10-19T22:39:13.564Z,98267.19
2023-10-19T22:41:40.027Z,98264.50
2023-10-19T22:44:08.186Z,98262.59
2023-10-19T22:46:39.769Z,98258.28
2023-10-19T22:49:06.706Z,98267.19
2023-10-19T22:51:33.183Z,98261.78
2023-10-19T22:53:59.934Z,98256.41
2023-10-19T22:56:26.411Z,98251.00
2023-10-19T22:58:54.148Z,98249.94
2023-10-19T23:01:21.130Z,98242.94
2023-10-19T23:03:47.881Z,98239.41
2023-10-19T23:06:15.223Z,98225.13
2023-10-19T23:08:42.150Z,98233.22
2023-10-19T23:11:10.331Z,98235.66
2023-10-19T23:13:39.285Z,98216.78
2023-10-19T23:16:07.028Z,98213.28
2023-10-19T23:18:36.975Z,98229.44
2023-10-19T23:21:04.970Z,98238.59
2023-10-19T23:23:32.330Z,98238.59
2023-10-19T23:26:01.814Z,98241.31
2023-10-19T23:28:31.844Z,98238.59
2023-10-19T23:31:06.085Z,98235.31
2023-10-19T23:33:33.516Z,98226.66
2023-10-19T23:36:00.758Z,98216.59
2023-10-19T23:38:27.629Z,98205.47
2023-10-19T23:40:54.318Z,98211.56
2023-10-19T23:43:21.255Z,98212.88
2023-10-19T23:45:48.623Z,98217.13
2023-10-19T23:48:19.397Z,98216.53
2023-10-19T23:50:45.805Z,98221.31
2023-10-19T23:53:12.354Z,98227.53
2023-10-19T23:55:41.608Z,98222.63
2023-10-19T23:58:08.135Z,98218.53
